createdAt,value
2023-03-01T00:02:33.326Z,-0.72
2023-03-01T00:05:35.912Z,-0.70
2023-03-01T00:08:38.842Z,-0.82
2023-03-01T00:11:41.783Z,-0.86
2023-03-01T00:14:44.388Z,-0.85
2023-03-01T00:17:48.354Z,-0.66
2023-03-01T00:20:52.604Z,-0.71
2023-03-01T00:23:55.943Z,-0.75
2023-03-01T00:26:58.586Z,-0.75
2023-03-01T00:30:01.644Z,-0.76
2023-03-01T00:33:05.938Z,-0.79
2023-03-01T00:36:08.998Z,-0.74
2023-03-01T00:39:13.877Z,-0.79
2023-03-01T00:42:17.057Z,-0.85
2023-03-01T00:45:19.902Z,-0.90
2023-03-01T00:48:24.130Z,-1.03
2023-03-01T00:51:29.079Z,-1.09
2023-03-01T00:54:31.821Z,-1.14
2023-03-01T00:57:34.556Z,-1.00
2023-03-01T01:00:37.745Z,-1.02
2023-03-01T01:03:41.692Z,-1.10
2023-03-01T01:06:46.158Z,-1.10
2023-03-01T01:09:48.834Z,-1.19
2023-03-01T01:12:51.723Z,-1.14
2023-03-01T01:15:54.355Z,-1.17
2023-03-01T01:18:58.928Z,-1.26
2023-03-01T01:22:01.499Z,-1.21
2023-03-01T01:25:04.635Z,-1.15
2023-03-01T01:28:07.246Z,-1.16
2023-03-01T01:31:09.983Z,-1.04
2023-03-01T01:34:18.303Z,-1.09
2023-03-01T01:37:21.073Z,-1.10
2023-03-01T01:40:23.676Z,-1.17
2023-03-01T01:43:28.584Z,-1.17
2023-03-01T01:46:34.105Z,-1.11
2023-03-01T01:49:40.407Z,-1.04
2023-03-01T01:52:43.134Z,-0.86
2023-03-01T01:55:48.245Z,-0.58
2023-03-01T01:58:51.555Z,-0.34
2023-03-01T02:01:54.653Z,-0.24
2023-03-01T02:05:05.121Z,-0.15
2023-03-01T02:08:08.342Z,0.02
2023-03-01T02:11:12.380Z,0.25
2023-03-01T02:14:15.231Z,0.45
2023-03-01T02:17:19.955Z,0.46
2023-03-01T02:20:28.914Z,0.56
2023-03-01T02:23:31.618Z,0.59
2023-03-01T02:26:37.956Z,0.67
2023-03-01T02:29:44.980Z,0.75
2023-03-01T02:32:47.983Z,0.76
2023-03-01T02:35:50.751Z,0.88
2023-03-01T02:38:55.526Z,0.83
2023-03-01T02:42:00.075Z,0.90
2023-03-01T02:45:04.713Z,1.02
2023-03-01T02:48:07.624Z,1.05
2023-03-01T02:51:15.365Z,1.17
2023-03-01T02:54:24.916Z,1.11
2023-03-01T02:57:29.753Z,1.15
2023-03-01T03:00:40.979Z,1.15
2023-03-01T03:03:44.045Z,1.19
2023-03-01T03:06:46.931Z,1.15
2023-03-01T03:09:49.533Z,1.13
2023-03-01T03:12:53.301Z,1.18
2023-03-01T03:15:58.376Z,1.26
2023-03-01T03:19:06.023Z,1.29
2023-03-01T03:22:09.949Z,1.37
2023-03-01T03:25:12.753Z,1.36
2023-03-01T03:28:16.842Z,1.40
2023-03-01T03:31:21.244Z,1.37
2023-03-01T03:34:24.273Z,1.42
2023-03-01T03:37:52.794Z,1.33
2023-03-01T03:41:03.274Z,1.46
2023-03-01T03:44:06.157Z,1.51
2023-03-01T03:47:10.134Z,1.51
2023-03-01T03:50:14.000Z,1.55
2023-03-01T03:53:16.419Z,1.59
2023-03-01T03:56:19.042Z,1.60
2023-03-01T03:59:21.691Z,1.65
2023-03-01T04:02:27.347Z,1.61
2023-03-01T04:05:30.550Z,1.67
2023-03-01T04:08:33.495Z,1.73
2023-03-01T04:11:36.180Z,1.73
2023-03-01T04:14:38.924Z,1.78
2023-03-01T04:17:44.011Z,1.79
2023-03-01T04:20:47.649Z,1.77
2023-03-01T04:23:53.488Z,1.76
2023-03-01T04:26:56.172Z,1.55
2023-03-01T04:29:58.751Z,1.68
2023-03-01T04:33:03.757Z,1.76
2023-03-01T04:36:09.730Z,1.84
2023-03-01T04:39:14.100Z,1.88
2023-03-01T04:42:17.699Z,1.93
2023-03-01T04:45:20.601Z,1.97
2023-03-01T04:48:24.716Z,2.02
2023-03-01T04:51:27.518Z,2.06
2023-03-01T04:54:30.387Z,2.05
2023-03-01T04:57:33.135Z,2.10
2023-03-01T05:00:35.825Z,2.15
2023-03-01T05:03:40.764Z,2.06
2023-03-01T05:06:44.681Z,2.11
2023-03-01T05:09:47.817Z,2.19
2023-03-01T05:12:50.435Z,2.18
2023-03-01T05:15:57.920Z,2.13
2023-03-01T05:19:02.280Z,2.23
2023-03-01T05:22:05.855Z,2.29
2023-03-01T05:25:09.331Z,2.32
2023-03-01T05:28:13.738Z,2.37
2023-03-01T05:31:16.768Z,2.39
2023-03-01T05:34:23.783Z,2.41
2023-03-01T05:37:26.605Z,2.38
2023-03-01T05:40:30.308Z,2.44
2023-03-01T05:43:34.890Z,2.32
2023-03-01T05:46:37.606Z,2.35
2023-03-01T05:49:41.875Z,2.41
2023-03-01T05:52:44.429Z,2.37
2023-03-01T05:55:48.438Z,2.34
2023-03-01T05:58:51.395Z,2.39
2023-03-01T06:01:54.509Z,2.40
2023-03-01T06:04:59.871Z,2.39
2023-03-01T06:08:03.258Z,2.40
2023-03-01T06:11:06.364Z,2.39
2023-03-01T06:14:11.451Z,2.42
2023-03-01T06:17:14.248Z,2.41
2023-03-01T06:20:20.267Z,2.49
2023-03-01T06:23:22.922Z,2.52
2023-03-01T06:26:25.727Z,2.58
2023-03-01T06:29:28.562Z,2.57
2023-03-01T06:32:32.085Z,2.51
2023-03-01T06:35:36.157Z,2.51
2023-03-01T06:38:38.836Z,2.57
2023-03-01T06:41:42.039Z,2.68
2023-03-01T06:44:46.819Z,2.72
2023-03-01T06:47:50.051Z,2.75
2023-03-01T06:50:54.168Z,2.86
2023-03-01T06:53:56.822Z,2.88
2023-03-01T06:56:59.440Z,2.97
2023-03-01T07:00:02.462Z,3.01
2023-03-01T07:03:05.255Z,2.59
2023-03-01T07:06:09.263Z,2.44
2023-03-01T07:09:11.804Z,2.30
2023-03-01T07:12:14.670Z,2.18
2023-03-01T07:15:17.925Z,2.04
2023-03-01T07:18:20.598Z,1.77
2023-03-01T07:21:24.567Z,1.74
2023-03-01T07:24:27.375Z,1.74
2023-03-01T07:27:30.088Z,1.76
2023-03-01T07:30:33.072Z,1.78
2023-03-01T07:33:35.662Z,1.79
2023-03-01T07:36:40.505Z,1.97
2023-03-01T07:39:43.284Z,1.98
2023-03-01T07:42:45.911Z,2.08
2023-03-01T07:45:48.591Z,2.14
2023-03-01T07:48:51.223Z,2.17
2023-03-01T07:51:55.390Z,2.26
2023-03-01T07:54:58.382Z,2.35
2023-03-01T07:58:01.055Z,2.29
2023-03-01T08:04:31.409Z,2.39
2023-03-01T08:07:35.518Z,2.48
2023-03-01T08:10:38.213Z,2.53
2023-03-01T08:13:40.903Z,2.65
2023-03-01T08:16:43.832Z,2.68
2023-03-01T08:19:46.840Z,2.56
2023-03-01T08:22:50.842Z,2.58
2023-03-01T08:25:53.957Z,2.83
2023-03-01T08:28:56.618Z,2.95
2023-03-01T08:31:59.478Z,3.13
2023-03-01T08:35:02.284Z,3.07
2023-03-01T08:38:06.253Z,3.17
2023-03-01T08:41:08.717Z,3.21
2023-03-01T08:44:11.898Z,3.25
2023-03-01T08:47:14.507Z,3.23
2023-03-01T08:50:17.733Z,3.28
2023-03-01T08:53:21.733Z,3.27
2023-03-01T08:56:24.303Z,3.39
2023-03-01T08:59:27.795Z,3.53
2023-03-01T09:02:30.561Z,3.70
2023-03-01T09:05:33.422Z,3.88
2023-03-01T09:08:38.096Z,3.59
2023-03-01T09:11:40.683Z,3.98
2023-03-01T09:14:43.312Z,4.19
2023-03-01T09:17:46.114Z,4.31
2023-03-01T09:20:48.704Z,3.97
2023-03-01T09:23:52.811Z,3.70
2023-03-01T09:26:56.395Z,4.06
2023-03-01T09:29:59.020Z,4.28
2023-03-01T09:33:01.922Z,4.40
2023-03-01T09:36:06.355Z,4.33
2023-03-01T09:39:10.477Z,4.67
2023-03-01T09:42:14.410Z,4.88
2023-03-01T09:45:18.475Z,4.95
2023-03-01T09:48:24.529Z,4.95
2023-03-01T09:51:34.235Z,5.05
2023-03-01T09:54:38.291Z,5.19
2023-03-01T09:57:48.481Z,5.30
2023-03-01T10:00:52.113Z,5.46
2023-03-01T10:04:05.813Z,5.52
2023-03-01T10:07:18.253Z,5.48
2023-03-01T10:10:29.452Z,5.78
2023-03-01T10:13:39.989Z,5.83
2023-03-01T10:16:46.071Z,6.05
2023-03-01T10:19:49.434Z,6.16
2023-03-01T10:22:53.634Z,6.36
2023-03-01T10:26:07.381Z,6.47
2023-03-01T10:29:11.692Z,6.31
2023-03-01T10:32:14.504Z,5.99
2023-03-01T10:35:19.459Z,6.16
2023-03-01T10:38:22.644Z,6.45
2023-03-01T10:41:28.213Z,6.58
2023-03-01T10:44:45.883Z,6.76
2023-03-01T10:47:48.633Z,6.87
2023-03-01T10:50:52.642Z,6.96
2023-03-01T10:53:55.243Z,6.91
2023-03-01T10:57:01.595Z,7.07
2023-03-01T11:00:23.711Z,7.18
2023-03-01T11:03:28.455Z,7.35
2023-03-01T11:06:31.088Z,7.32
2023-03-01T11:09:39.515Z,7.17
2023-03-01T11:12:43.567Z,7.25
2023-03-01T11:16:00.724Z,7.36
2023-03-01T11:19:17.647Z,7.70
2023-03-01T11:22:22.535Z,7.91
2023-03-01T11:25:29.013Z,7.90
2023-03-01T11:28:33.066Z,7.91
2023-03-01T11:31:39.077Z,8.06
2023-03-01T11:34:46.158Z,8.23
2023-03-01T11:38:00.134Z,8.21
2023-03-01T11:41:05.162Z,8.31
2023-03-01T11:44:13.795Z,8.40
2023-03-01T11:47:25.280Z,8.01
2023-03-01T11:50:31.833Z,8.07
2023-03-01T11:53:52.644Z,8.26
2023-03-01T11:56:58.367Z,8.67
2023-03-01T12:00:20.262Z,8.78
2023-03-01T12:03:28.663Z,8.66
2023-03-01T12:06:38.702Z,8.64
2023-03-01T12:09:52.769Z,8.78
2023-03-01T12:13:28.284Z,9.08
2023-03-01T12:16:42.925Z,9.23
2023-03-01T12:19:58.709Z,9.31
2023-03-01T12:23:21.107Z,9.26
2023-03-01T12:26:29.958Z,9.48
2023-03-01T12:29:35.793Z,9.37
2023-03-01T12:32:49.603Z,9.52
2023-03-01T12:36:16.281Z,9.20
2023-03-01T12:39:34.428Z,9.60
2023-03-01T12:42:48.485Z,9.73
2023-03-01T12:45:59.869Z,9.98
2023-03-01T12:49:11.149Z,10.00
2023-03-01T12:52:17.465Z,10.12
2023-03-01T12:55:30.230Z,9.76
2023-03-01T12:58:48.689Z,10.02
2023-03-01T13:01:58.738Z,10.17
2023-03-01T13:05:09.558Z,10.62
2023-03-01T13:08:18.499Z,11.09
2023-03-01T13:11:23.208Z,16.03
2023-03-01T13:14:48.275Z,22.38
2023-03-01T13:17:52.513Z,25.61
2023-03-01T13:20:58.430Z,23.74
2023-03-01T13:24:01.067Z,25.18
2023-03-01T13:27:25.926Z,25.30
2023-03-01T13:30:44.019Z,26.11
2023-03-01T13:33:48.340Z,27.53
2023-03-01T13:36:52.522Z,26.33
2023-03-01T13:39:55.228Z,25.75
2023-03-01T13:43:05.582Z,23.49
2023-03-01T13:46:15.015Z,22.79
2023-03-01T13:49:19.672Z,22.21
2023-03-01T13:52:34.488Z,24.12
2023-03-01T13:55:40.635Z,24.56
2023-03-01T13:58:49.745Z,24.70
2023-03-01T14:01:54.757Z,23.29
2023-03-01T14:05:02.082Z,25.49
2023-03-01T14:08:06.912Z,25.16
2023-03-01T14:11:34.588Z,26.10
2023-03-01T14:14:44.758Z,25.01
2023-03-01T14:17:53.159Z,24.44
2023-03-01T14:20:55.917Z,22.04
2023-03-01T14:24:00.569Z,23.08
2023-03-01T14:27:03.674Z,23.43
2023-03-01T14:30:13.617Z,21.83
2023-03-01T14:33:25.733Z,22.11
2023-03-01T14:36:29.756Z,23.49
2023-03-01T14:39:34.328Z,22.90
2023-03-01T14:42:38.489Z,23.26
2023-03-01T14:45:41.135Z,25.07
2023-03-01T14:48:43.785Z,26.31
2023-03-01T14:51:53.566Z,25.09
2023-03-01T14:54:57.585Z,23.90
2023-03-01T14:58:03.130Z,24.67
2023-03-01T15:01:07.348Z,25.36
2023-03-01T15:04:13.636Z,25.98
2023-03-01T15:07:16.667Z,25.70
2023-03-01T15:10:23.154Z,25.22
2023-03-01T15:13:27.376Z,25.59
2023-03-01T15:16:32.526Z,23.47
2023-03-01T15:19:35.466Z,21.25
2023-03-01T15:22:38.118Z,22.25
2023-03-01T15:25:46.870Z,22.19
2023-03-01T15:28:52.024Z,22.58
2023-03-01T15:31:59.821Z,18.48
2023-03-01T15:35:11.436Z,15.88
2023-03-01T15:38:27.966Z,14.92
2023-03-01T15:41:33.279Z,14.94
2023-03-01T15:44:43.829Z,15.73
2023-03-01T15:47:51.059Z,17.61
2023-03-01T15:50:56.743Z,17.21
2023-03-01T15:54:01.993Z,18.40
2023-03-01T15:57:05.963Z,18.77
2023-03-01T16:00:12.554Z,18.32
2023-03-01T16:03:15.187Z,16.81
2023-03-01T16:06:17.801Z,17.41
2023-03-01T16:09:20.580Z,16.99
2023-03-01T16:12:25.205Z,14.88
2023-03-01T16:15:31.946Z,12.27
2023-03-01T16:18:35.500Z,10.42
2023-03-01T16:21:38.732Z,9.92
2023-03-01T16:24:41.894Z,9.59
2023-03-01T16:27:46.566Z,9.32
2023-03-01T16:30:50.326Z,9.13
2023-03-01T16:33:54.999Z,8.93
2023-03-01T16:36:57.439Z,8.75
2023-03-01T16:40:00.294Z,8.58
2023-03-01T16:43:04.471Z,8.42
2023-03-01T16:46:12.477Z,8.23
2023-03-01T16:49:15.274Z,8.04
2023-03-01T16:52:22.868Z,7.84
2023-03-01T16:55:25.642Z,7.72
2023-03-01T16:58:29.721Z,7.61
2023-03-01T17:01:38.469Z,7.45
2023-03-01T17:04:41.503Z,7.25
2023-03-01T17:07:44.375Z,7.12
2023-03-01T17:10:46.971Z,6.86
2023-03-01T17:13:50.971Z,6.73
2023-03-01T17:16:54.001Z,6.63
2023-03-01T17:19:57.446Z,6.52
2023-03-01T17:23:00.074Z,6.29
2023-03-01T17:26:03.026Z,6.15
2023-03-01T17:29:07.349Z,6.04
2023-03-01T17:32:10.961Z,6.04
2023-03-01T17:35:13.878Z,5.89
2023-03-01T17:38:17.128Z,5.81
2023-03-01T17:41:20.838Z,5.80
2023-03-01T17:44:25.208Z,5.80
2023-03-01T17:47:28.118Z,5.75
2023-03-01T17:50:30.859Z,5.74
2023-03-01T17:53:33.585Z,5.72
2023-03-01T17:56:38.757Z,5.65
2023-03-01T17:59:42.823Z,5.53
2023-03-01T18:02:46.133Z,5.38
2023-03-01T18:05:49.307Z,5.34
2023-03-01T18:08:53.563Z,5.14
2023-03-01T18:11:56.303Z,5.05
2023-03-01T18:15:00.307Z,5.00
2023-03-01T18:18:02.945Z,4.80
2023-03-01T18:21:06.341Z,4.67
2023-03-01T18:24:09.092Z,4.65
2023-03-01T18:27:12.074Z,4.52
2023-03-01T18:30:17.194Z,4.43
2023-03-01T18:33:19.824Z,4.28
2023-03-01T18:36:24.361Z,4.21
2023-03-01T18:39:27.006Z,4.07
2023-03-01T18:42:29.658Z,4.03
2023-03-01T18:45:33.736Z,4.04
2023-03-01T18:48:37.124Z,3.87
2023-03-01T18:51:40.482Z,3.85
2023-03-01T18:54:43.184Z,3.84
2023-03-01T18:57:45.810Z,3.91
2023-03-01T19:00:49.820Z,3.82
2023-03-01T19:03:54.737Z,3.91
2023-03-01T19:06:57.896Z,3.94
2023-03-01T19:10:00.769Z,3.93
2023-03-01T19:13:03.533Z,3.85
2023-03-01T19:16:09.802Z,3.83
2023-03-01T19:19:13.266Z,3.85
2023-03-01T19:22:16.105Z,3.76
2023-03-01T19:25:19.400Z,3.65
2023-03-01T19:28:22.058Z,3.60
2023-03-01T19:31:28.591Z,3.49
2023-03-01T19:34:31.931Z,3.39
2023-03-01T19:37:35.529Z,3.19
2023-03-01T19:40:38.489Z,3.30
2023-03-01T19:43:41.722Z,3.37
2023-03-01T19:46:45.977Z,3.35
2023-03-01T19:49:48.715Z,3.38
2023-03-01T19:52:52.600Z,3.39
2023-03-01T19:55:59.227Z,3.25
2023-03-01T19:59:04.701Z,3.01
2023-03-01T20:02:10.438Z,3.03
2023-03-01T20:05:13.323Z,3.21
2023-03-01T20:08:15.995Z,3.27
2023-03-01T20:11:20.305Z,3.42
2023-03-01T20:14:24.431Z,3.63
2023-03-01T20:17:28.601Z,3.78
2023-03-01T20:20:31.371Z,4.01
2023-03-01T20:23:34.009Z,3.97
2023-03-01T20:26:37.548Z,3.93
2023-03-01T20:29:40.381Z,4.01
2023-03-01T20:32:45.026Z,4.14
2023-03-01T20:35:48.038Z,4.14
2023-03-01T20:38:50.779Z,4.00
2023-03-01T20:41:54.386Z,3.92
2023-03-01T20:44:57.330Z,3.68
2023-03-01T20:48:17.385Z,3.39
2023-03-01T20:51:20.494Z,3.35
2023-03-01T20:54:23.113Z,3.38
2023-03-01T20:57:25.939Z,3.21
2023-03-01T21:00:29.360Z,3.21
2023-03-01T21:03:38.797Z,3.27
2023-03-01T21:06:46.139Z,3.30
2023-03-01T21:09:49.106Z,3.28
2023-03-01T21:12:51.806Z,3.25
2023-03-01T21:15:54.838Z,3.25
2023-03-01T21:19:01.555Z,3.17
2023-03-01T21:22:06.803Z,3.32
2023-03-01T21:25:09.851Z,3.41
2023-03-01T21:28:12.466Z,3.37
2023-03-01T21:31:17.062Z,3.36
2023-03-01T21:34:21.108Z,3.18
2023-03-01T21:37:27.828Z,3.18
2023-03-01T21:40:30.449Z,2.87
2023-03-01T21:43:33.133Z,2.96
2023-03-01T21:46:37.902Z,2.82
2023-03-01T21:49:41.897Z,2.87
2023-03-01T21:52:44.703Z,2.84
2023-03-01T21:55:48.043Z,2.90
2023-03-01T21:58:50.873Z,2.83
2023-03-01T22:01:53.622Z,2.79
2023-03-01T22:04:57.653Z,2.51
2023-03-01T22:08:00.329Z,2.30
2023-03-01T22:11:03.511Z,2.09
2023-03-01T22:14:06.704Z,2.05
2023-03-01T22:17:09.262Z,2.01
2023-03-01T22:20:14.327Z,2.06
2023-03-01T22:23:16.925Z,2.20
2023-03-01T22:26:24.367Z,2.21
2023-03-01T22:29:28.942Z,2.29
2023-03-01T22:32:32.046Z,2.34
2023-03-01T22:35:36.098Z,2.26
2023-03-01T22:38:39.442Z,2.36
2023-03-01T22:41:45.663Z,2.39
2023-03-01T22:44:48.361Z,2.55
2023-03-01T22:47:51.159Z,2.53
2023-03-01T22:50:55.179Z,2.46
2023-03-01T22:54:05.139Z,2.43
2023-03-01T22:57:09.052Z,2.29
2023-03-01T23:00:13.269Z,2.18
2023-03-01T23:03:17.378Z,2.18
2023-03-01T23:06:22.894Z,2.11
2023-03-01T23:09:27.477Z,2.11
2023-03-01T23:12:30.141Z,2.05
2023-03-01T23:15:32.941Z,2.04
2023-03-01T23:18:35.653Z,2.13
2023-03-01T23:21:44.156Z,2.08
2023-03-01T23:24:47.646Z,1.90
2023-03-01T23:27:50.247Z,1.77
2023-03-01T23:30:57.728Z,1.61
2023-03-01T23:34:00.471Z,1.58
2023-03-01T23:37:05.092Z,1.61
2023-03-01T23:40:09.001Z,1.54
2023-03-01T23:43:11.464Z,1.58
2023-03-01T23:46:14.468Z,1.53
2023-03-01T23:49:19.463Z,1.50
2023-03-01T23:52:23.585Z,1.42
2023-03-01T23:55:27.126Z,1.37
2023-03-01T23:58:30.101Z,1.36
